CheckWX is a tool to help pilots better visualize weather data.  It is not intended as a substitute for an official pre-flight weather briefing.

02:42:03 UTC

HDAM TAF
Djibouti-Ambouli Airport
Djibouti City, Djibouti
HDAM 221100Z 2212/2312 08010KT 9999 SCT020 BECMG 2218/2221 VRB03KT SCT023 SCT020 BECMG 2300/2306 00000KT SCT020

Apr-22@
12:00 UTC

Apr-22 @ 12:00 UTC

Apr-22@
18:00 UTC

Apr-22 @ 18:00 UTC

HDAM 221100Z 2212/2312 08010KT 9999 SCT020

Expired

Wind
  • 080° at 10 KTS
Cloud Levels
  • Scattered at 2,000' AGL

Apr-22@
18:00 UTC

Apr-22 @ 18:00 UTC

Apr-23@
00:00 UTC

Apr-23 @ 00:00 UTC

BECMG 2218/2221 VRB03KT SCT023 SCT020

Expired

Wind
  • Variable at 3 KTS
Cloud Levels
  • Scattered at 2,300' AGL
  • Scattered at 2,000' AGL

Apr-23@
00:00 UTC

Apr-23 @ 00:00 UTC

Apr-23@
12:00 UTC

Apr-23 @ 12:00 UTC

BECMG 2300/2306 00000KT SCT020

Becoming

Becoming Conditions expected by Tue, Apr 23, 2019 @ 06:00 UTC

Cloud Levels
  • Scattered at 2,000' AGL